sensor_id;sensor_type;location;lat;lon;timestamp;pressure;altitude;pressure_sealevel;temperature;humidity
58471;BME280;44258;51.288;12.068;2022-10-03T00:00:23;100957.81;;;11.52;63.23
58471;BME280;44258;51.288;12.068;2022-10-03T00:03:16;100965.56;;;11.41;63.72
58471;BME280;44258;51.288;12.068;2022-10-03T00:05:54;100966.44;;;11.41;63.70
58471;BME280;44258;51.288;12.068;2022-10-03T00:11:24;100967.47;;;11.20;64.49
58471;BME280;44258;51.288;12.068;2022-10-03T00:13:58;100969.00;;;11.25;64.43
58471;BME280;44258;51.288;12.068;2022-10-03T00:16:36;100973.59;;;11.23;64.50
58471;BME280;44258;51.288;12.068;2022-10-03T00:19:18;100974.31;;;11.27;64.31
58471;BME280;44258;51.288;12.068;2022-10-03T00:21:57;100982.34;;;11.28;64.24
58471;BME280;44258;51.288;12.068;2022-10-03T00:24:39;100980.00;;;11.21;64.50
58471;BME280;44258;51.288;12.068;2022-10-03T00:27:13;100981.03;;;11.18;64.70
58471;BME280;44258;51.288;12.068;2022-10-03T00:29:55;100977.56;;;11.16;64.74
58471;BME280;44258;51.288;12.068;2022-10-03T00:32:39;100975.28;;;11.07;65.17
58471;BME280;44258;51.288;12.068;2022-10-03T00:35:22;100981.63;;;11.06;65.13
58471;BME280;44258;51.288;12.068;2022-10-03T00:38:09;100995.94;;;11.06;65.10
58471;BME280;44258;51.288;12.068;2022-10-03T00:41:15;101000.94;;;10.95;65.64
58471;BME280;44258;51.288;12.068;2022-10-03T00:47:01;100991.78;;;10.99;65.44
58471;BME280;44258;51.288;12.068;2022-10-03T00:49:58;101004.16;;;11.03;65.36
58471;BME280;44258;51.288;12.068;2022-10-03T00:52:52;101006.56;;;11.09;65.16
58471;BME280;44258;51.288;12.068;2022-10-03T00:55:32;101003.34;;;11.01;65.20
58471;BME280;44258;51.288;12.068;2022-10-03T00:58:31;101005.97;;;11.03;65.57
58471;BME280;44258;51.288;12.068;2022-10-03T01:01:20;100998.78;;;11.03;65.34
58471;BME280;44258;51.288;12.068;2022-10-03T01:03:55;101008.44;;;11.07;65.30
58471;BME280;44258;51.288;12.068;2022-10-03T01:06:35;101002.44;;;11.02;65.23
58471;BME280;44258;51.288;12.068;2022-10-03T01:09:29;101006.84;;;11.03;65.55
58471;BME280;44258;51.288;12.068;2022-10-03T01:12:26;100992.47;;;11.04;65.30
58471;BME280;44258;51.288;12.068;2022-10-03T01:15:13;101007.53;;;10.89;65.98
58471;BME280;44258;51.288;12.068;2022-10-03T01:17:53;101005.47;;;10.94;65.81
58471;BME280;44258;51.288;12.068;2022-10-03T01:20:29;100994.41;;;11.01;65.65
58471;BME280;44258;51.288;12.068;2022-10-03T01:23:42;101003.94;;;10.89;66.17
58471;BME280;44258;51.288;12.068;2022-10-03T01:26:37;101008.09;;;10.96;65.65
58471;BME280;44258;51.288;12.068;2022-10-03T01:29:11;100999.00;;;10.99;65.35
58471;BME280;44258;51.288;12.068;2022-10-03T01:32:03;101005.69;;;10.90;65.63
58471;BME280;44258;51.288;12.068;2022-10-03T01:34:39;101002.69;;;10.77;65.98
58471;BME280;44258;51.288;12.068;2022-10-03T01:37:12;101010.41;;;10.85;65.88
58471;BME280;44258;51.288;12.068;2022-10-03T01:39:47;101012.28;;;10.83;65.89
58471;BME280;44258;51.288;12.068;2022-10-03T01:42:27;101013.91;;;10.87;65.93
58471;BME280;44258;51.288;12.068;2022-10-03T01:45:06;101009.81;;;10.97;65.43
58471;BME280;44258;51.288;12.068;2022-10-03T01:47:43;101017.03;;;10.97;65.31
58471;BME280;44258;51.288;12.068;2022-10-03T01:50:20;101025.91;;;10.99;65.28
58471;BME280;44258;51.288;12.068;2022-10-03T01:52:53;101020.41;;;11.02;64.94
58471;BME280;44258;51.288;12.068;2022-10-03T01:55:43;101020.59;;;10.97;65.24
58471;BME280;44258;51.288;12.068;2022-10-03T01:58:21;101032.09;;;11.01;65.11
58471;BME280;44258;51.288;12.068;2022-10-03T02:00:58;101032.31;;;10.96;65.31
58471;BME280;44258;51.288;12.068;2022-10-03T02:03:30;101036.91;;;10.94;65.47
58471;BME280;44258;51.288;12.068;2022-10-03T02:06:05;101020.47;;;10.81;66.04
58471;BME280;44258;51.288;12.068;2022-10-03T02:08:48;101033.41;;;10.92;65.96
58471;BME280;44258;51.288;12.068;2022-10-03T02:11:28;101034.28;;;10.92;66.09
58471;BME280;44258;51.288;12.068;2022-10-03T02:13:59;101040.97;;;11.03;65.93
58471;BME280;44258;51.288;12.068;2022-10-03T02:16:37;101037.03;;;10.91;66.00
58471;BME280;44258;51.288;12.068;2022-10-03T02:19:12;101032.25;;;10.98;66.06
58471;BME280;44258;51.288;12.068;2022-10-03T02:21:48;101038.22;;;11.04;66.09
58471;BME280;44258;51.288;12.068;2022-10-03T02:24:28;101043.44;;;11.07;66.01
58471;BME280;44258;51.288;12.068;2022-10-03T02:30:16;101043.88;;;11.17;65.91
58471;BME280;44258;51.288;12.068;2022-10-03T02:33:17;101052.41;;;11.08;66.29
58471;BME280;44258;51.288;12.068;2022-10-03T02:39:50;101061.69;;;11.20;66.11
58471;BME280;44258;51.288;12.068;2022-10-03T02:42:37;101065.56;;;11.14;66.34
58471;BME280;44258;51.288;12.068;2022-10-03T02:45:36;101059.44;;;11.29;65.97
58471;BME280;44258;51.288;12.068;2022-10-03T02:48:34;101068.91;;;11.19;66.38
58471;BME280;44258;51.288;12.068;2022-10-03T02:51:30;101074.63;;;11.32;66.29
58471;BME280;44258;51.288;12.068;2022-10-03T02:54:37;101073.13;;;11.25;66.43
58471;BME280;44258;51.288;12.068;2022-10-03T03:00:07;101067.03;;;11.40;65.86
58471;BME280;44258;51.288;12.068;2022-10-03T03:03:04;101075.44;;;11.13;66.93
58471;BME280;44258;51.288;12.068;2022-10-03T03:06:28;101075.47;;;11.32;66.53
58471;BME280;44258;51.288;12.068;2022-10-03T03:09:30;101071.03;;;11.31;66.39
58471;BME280;44258;51.288;12.068;2022-10-03T03:12:20;101076.03;;;11.39;66.10
58471;BME280;44258;51.288;12.068;2022-10-03T03:17:51;101081.00;;;11.29;67.05
58471;BME280;44258;51.288;12.068;2022-10-03T03:20:34;101089.13;;;11.28;67.70
58471;BME280;44258;51.288;12.068;2022-10-03T03:23:23;101096.28;;;11.10;68.70
58471;BME280;44258;51.288;12.068;2022-10-03T03:26:16;101096.34;;;11.08;69.12
58471;BME280;44258;51.288;12.068;2022-10-03T03:28:54;101089.97;;;11.30;68.12
58471;BME280;44258;51.288;12.068;2022-10-03T03:31:25;101088.72;;;11.37;68.36
58471;BME280;44258;51.288;12.068;2022-10-03T03:34:01;101087.56;;;11.43;67.98
58471;BME280;44258;51.288;12.068;2022-10-03T03:36:36;101083.47;;;11.53;67.43
58471;BME280;44258;51.288;12.068;2022-10-03T03:39:15;101084.22;;;11.57;67.60
58471;BME280;44258;51.288;12.068;2022-10-03T03:42:08;101083.91;;;11.63;67.13
58471;BME280;44258;51.288;12.068;2022-10-03T03:45:03;101088.78;;;11.54;67.09
58471;BME280;44258;51.288;12.068;2022-10-03T03:47:54;101088.94;;;11.51;67.51
58471;BME280;44258;51.288;12.068;2022-10-03T03:50:32;101093.44;;;11.51;67.91
58471;BME280;44258;51.288;12.068;2022-10-03T03:53:18;101099.19;;;11.43;68.34
58471;BME280;44258;51.288;12.068;2022-10-03T03:56:04;101104.06;;;11.35;68.75
58471;BME280;44258;51.288;12.068;2022-10-03T03:58:37;101102.41;;;11.32;68.77
58471;BME280;44258;51.288;12.068;2022-10-03T04:01:17;101106.63;;;11.38;68.62
58471;BME280;44258;51.288;12.068;2022-10-03T04:03:54;101106.47;;;11.22;69.38
58471;BME280;44258;51.288;12.068;2022-10-03T04:06:35;101106.13;;;11.09;70.04
58471;BME280;44258;51.288;12.068;2022-10-03T04:09:20;101119.53;;;11.11;69.87
58471;BME280;44258;51.288;12.068;2022-10-03T04:11:59;101109.50;;;11.14;69.68
58471;BME280;44258;51.288;12.068;2022-10-03T04:14:53;101118.09;;;11.23;69.33
58471;BME280;44258;51.288;12.068;2022-10-03T04:17:34;101121.81;;;11.20;69.42
58471;BME280;44258;51.288;12.068;2022-10-03T04:20:35;101115.00;;;11.11;69.77
58471;BME280;44258;51.288;12.068;2022-10-03T04:23:19;101111.69;;;11.06;70.12
58471;BME280;44258;51.288;12.068;2022-10-03T04:26:10;101116.00;;;11.29;69.33
58471;BME280;44258;51.288;12.068;2022-10-03T04:29:14;101115.06;;;11.30;69.09
58471;BME280;44258;51.288;12.068;2022-10-03T04:31:51;101115.69;;;11.35;68.99
58471;BME280;44258;51.288;12.068;2022-10-03T04:34:41;101120.38;;;11.32;69.31
58471;BME280;44258;51.288;12.068;2022-10-03T04:37:20;101120.50;;;11.29;69.70
58471;BME280;44258;51.288;12.068;2022-10-03T04:40:00;101119.13;;;11.39;69.41
58471;BME280;44258;51.288;12.068;2022-10-03T04:42:45;101117.00;;;11.46;69.03
58471;BME280;44258;51.288;12.068;2022-10-03T04:45:29;101118.22;;;11.40;69.12
58471;BME280;44258;51.288;12.068;2022-10-03T04:48:06;101109.53;;;11.33;69.31
58471;BME280;44258;51.288;12.068;2022-10-03T04:50:39;101113.03;;;10.96;71.27
58471;BME280;44258;51.288;12.068;2022-10-03T04:53:18;101116.09;;;11.07;70.67
58471;BME280;44258;51.288;12.068;2022-10-03T04:55:50;101114.03;;;11.14;70.58
58471;BME280;44258;51.288;12.068;2022-10-03T04:58:27;101104.16;;;10.94;71.27
58471;BME280;44258;51.288;12.068;2022-10-03T05:01:05;101116.78;;;11.12;70.45
58471;BME280;44258;51.288;12.068;2022-10-03T05:06:30;101110.16;;;11.20;69.90
58471;BME280;44258;51.288;12.068;2022-10-03T05:09:11;101110.91;;;11.23;69.74
58471;BME280;44258;51.288;12.068;2022-10-03T05:11:48;101116.78;;;11.12;70.08
58471;BME280;44258;51.288;12.068;2022-10-03T05:14:26;101117.09;;;11.25;69.56
58471;BME280;44258;51.288;12.068;2022-10-03T05:17:08;101117.59;;;11.14;69.83
58471;BME280;44258;51.288;12.068;2022-10-03T05:19:47;101119.94;;;11.22;69.45
58471;BME280;44258;51.288;12.068;2022-10-03T05:22:31;101121.72;;;11.22;69.47
58471;BME280;44258;51.288;12.068;2022-10-03T05:25:13;101120.28;;;11.14;69.87
58471;BME280;44258;51.288;12.068;2022-10-03T05:27:47;101121.81;;;11.20;69.29
58471;BME280;44258;51.288;12.068;2022-10-03T05:30:19;101126.53;;;11.15;69.46
58471;BME280;44258;51.288;12.068;2022-10-03T05:32:56;101126.13;;;11.24;69.16
58471;BME280;44258;51.288;12.068;2022-10-03T05:35:30;101141.13;;;11.30;69.04
58471;BME280;44258;51.288;12.068;2022-10-03T05:38:17;101141.75;;;11.16;69.51
58471;BME280;44258;51.288;12.068;2022-10-03T05:41:00;101136.78;;;11.26;68.89
58471;BME280;44258;51.288;12.068;2022-10-03T05:43:42;101153.97;;;11.23;69.02
58471;BME280;44258;51.288;12.068;2022-10-03T05:46:20;101146.41;;;11.31;68.86
58471;BME280;44258;51.288;12.068;2022-10-03T05:48:52;101153.69;;;11.29;68.76
58471;BME280;44258;51.288;12.068;2022-10-03T05:51:42;101151.00;;;11.29;68.64
58471;BME280;44258;51.288;12.068;2022-10-03T05:54:32;101158.88;;;11.34;68.68
58471;BME280;44258;51.288;12.068;2022-10-03T06:00:08;101158.56;;;11.21;69.10
58471;BME280;44258;51.288;12.068;2022-10-03T06:02:53;101161.75;;;11.29;69.51
58471;BME280;44258;51.288;12.068;2022-10-03T06:05:33;101171.88;;;11.24;69.64
58471;BME280;44258;51.288;12.068;2022-10-03T06:08:25;101164.03;;;11.39;69.28
58471;BME280;44258;51.288;12.068;2022-10-03T06:11:15;101170.28;;;11.39;69.40
58471;BME280;44258;51.288;12.068;2022-10-03T06:14:06;101170.13;;;11.63;68.81
58471;BME280;44258;51.288;12.068;2022-10-03T06:16:44;101178.53;;;11.74;68.45
58471;BME280;44258;51.288;12.068;2022-10-03T06:19:21;101177.00;;;11.68;68.53
58471;BME280;44258;51.288;12.068;2022-10-03T06:22:16;101186.69;;;11.72;68.65
58471;BME280;44258;51.288;12.068;2022-10-03T06:28:55;101184.22;;;11.87;68.35
58471;BME280;44258;51.288;12.068;2022-10-03T06:40:57;101193.78;;;12.13;67.50
58471;BME280;44258;51.288;12.068;2022-10-03T06:43:52;101198.53;;;12.08;67.77
58471;BME280;44258;51.288;12.068;2022-10-03T06:46:49;101213.25;;;12.20;67.77
58471;BME280;44258;51.288;12.068;2022-10-03T06:49:51;101205.59;;;12.10;68.17
58471;BME280;44258;51.288;12.068;2022-10-03T06:55:44;101217.91;;;12.16;68.00
58471;BME280;44258;51.288;12.068;2022-10-03T06:58:47;101211.31;;;12.03;67.92
58471;BME280;44258;51.288;12.068;2022-10-03T07:01:37;101209.13;;;11.92;68.14
58471;BME280;44258;51.288;12.068;2022-10-03T07:04:33;101223.19;;;11.99;67.70
58471;BME280;44258;51.288;12.068;2022-10-03T07:10:17;101225.03;;;12.17;67.51
58471;BME280;44258;51.288;12.068;2022-10-03T07:13:13;101234.34;;;12.29;67.45
58471;BME280;44258;51.288;12.068;2022-10-03T07:15:56;101221.78;;;12.47;66.68
58471;BME280;44258;51.288;12.068;2022-10-03T07:18:48;101225.28;;;12.49;66.54
58471;BME280;44258;51.288;12.068;2022-10-03T07:21:40;101234.00;;;12.54;66.67
58471;BME280;44258;51.288;12.068;2022-10-03T07:24:31;101233.53;;;12.63;66.72
58471;BME280;44258;51.288;12.068;2022-10-03T07:30:15;101249.06;;;12.58;66.47
58471;BME280;44258;51.288;12.068;2022-10-03T07:36:30;101254.88;;;12.50;66.94
58471;BME280;44258;51.288;12.068;2022-10-03T07:42:34;101259.28;;;12.88;66.38
58471;BME280;44258;51.288;12.068;2022-10-03T07:45:23;101262.13;;;12.67;67.51
58471;BME280;44258;51.288;12.068;2022-10-03T07:48:19;101262.69;;;12.74;67.04
58471;BME280;44258;51.288;12.068;2022-10-03T07:51:06;101260.47;;;12.82;67.16
58471;BME280;44258;51.288;12.068;2022-10-03T07:56:49;101267.41;;;13.05;66.67
58471;BME280;44258;51.288;12.068;2022-10-03T07:59:38;101264.72;;;13.05;66.34
58471;BME280;44258;51.288;12.068;2022-10-03T08:02:29;101269.28;;;13.21;66.16
58471;BME280;44258;51.288;12.068;2022-10-03T08:05:23;101275.53;;;13.40;65.64
58471;BME280;44258;51.288;12.068;2022-10-03T08:08:17;101284.09;;;13.13;65.62
58471;BME280;44258;51.288;12.068;2022-10-03T08:11:15;101277.25;;;13.41;65.56
58471;BME280;44258;51.288;12.068;2022-10-03T08:13:59;101280.94;;;13.40;65.31
58471;BME280;44258;51.288;12.068;2022-10-03T08:16:50;101282.50;;;13.44;64.96
58471;BME280;44258;51.288;12.068;2022-10-03T08:19:39;101268.50;;;13.53;64.77
58471;BME280;44258;51.288;12.068;2022-10-03T08:22:17;101284.94;;;13.66;63.79
58471;BME280;44258;51.288;12.068;2022-10-03T08:25:12;101286.09;;;13.78;63.83
58471;BME280;44258;51.288;12.068;2022-10-03T08:31:13;101285.13;;;14.28;62.98
58471;BME280;44258;51.288;12.068;2022-10-03T08:34:11;101279.81;;;14.59;61.91
58471;BME280;44258;51.288;12.068;2022-10-03T08:37:00;101284.03;;;14.48;61.04
58471;BME280;44258;51.288;12.068;2022-10-03T08:39:44;101284.88;;;14.65;61.32
58471;BME280;44258;51.288;12.068;2022-10-03T08:42:38;101280.25;;;14.51;61.14
58471;BME280;44258;51.288;12.068;2022-10-03T08:45:43;101285.66;;;14.35;61.06
58471;BME280;44258;51.288;12.068;2022-10-03T08:54:22;101290.19;;;14.03;61.18
58471;BME280;44258;51.288;12.068;2022-10-03T08:57:10;101299.41;;;13.99;61.29
58471;BME280;44258;51.288;12.068;2022-10-03T09:00:03;101295.75;;;14.00;61.21
58471;BME280;44258;51.288;12.068;2022-10-03T09:02:59;101302.66;;;14.05;60.93
58471;BME280;44258;51.288;12.068;2022-10-03T09:06:04;101303.34;;;13.75;61.38
58471;BME280;44258;51.288;12.068;2022-10-03T09:09:05;101299.66;;;13.94;61.31
58471;BME280;44258;51.288;12.068;2022-10-03T09:12:11;101303.69;;;14.03;60.90
58471;BME280;44258;51.288;12.068;2022-10-03T09:15:03;101300.91;;;14.20;60.71
58471;BME280;44258;51.288;12.068;2022-10-03T09:24:11;101297.13;;;14.56;60.30
58471;BME280;44258;51.288;12.068;2022-10-03T09:27:31;101300.84;;;14.69;59.45
58471;BME280;44258;51.288;12.068;2022-10-03T09:30:15;101303.56;;;14.53;59.48
58471;BME280;44258;51.288;12.068;2022-10-03T09:35:59;101310.25;;;13.81;60.31
58471;BME280;44258;51.288;12.068;2022-10-03T09:38:54;101318.34;;;13.99;59.98
58471;BME280;44258;51.288;12.068;2022-10-03T09:42:05;101311.44;;;13.93;60.42
58471;BME280;44258;51.288;12.068;2022-10-03T09:44:56;101310.16;;;14.16;59.62
58471;BME280;44258;51.288;12.068;2022-10-03T09:48:08;101305.78;;;14.13;58.89
58471;BME280;44258;51.288;12.068;2022-10-03T09:50:58;101308.44;;;14.15;59.62
58471;BME280;44258;51.288;12.068;2022-10-03T09:56:54;101306.47;;;14.50;58.98
58471;BME280;44258;51.288;12.068;2022-10-03T09:59:39;101309.34;;;14.31;59.00
58471;BME280;44258;51.288;12.068;2022-10-03T10:08:31;101312.41;;;14.08;57.08
58471;BME280;44258;51.288;12.068;2022-10-03T10:11:20;101309.88;;;14.38;56.25
58471;BME280;44258;51.288;12.068;2022-10-03T10:17:27;101308.81;;;14.57;54.54
58471;BME280;44258;51.288;12.068;2022-10-03T10:23:21;101291.34;;;14.62;53.19
58471;BME280;44258;51.288;12.068;2022-10-03T10:29:35;101306.13;;;15.03;54.10
58471;BME280;44258;51.288;12.068;2022-10-03T10:32:31;101299.78;;;14.88;54.34
58471;BME280;44258;51.288;12.068;2022-10-03T10:38:38;101296.53;;;15.27;53.56
58471;BME280;44258;51.288;12.068;2022-10-03T10:45:14;101287.97;;;15.05;52.27
58471;BME280;44258;51.288;12.068;2022-10-03T10:48:15;101288.78;;;14.91;53.00
58471;BME280;44258;51.288;12.068;2022-10-03T10:57:35;101297.28;;;14.53;52.24
58471;BME280;44258;51.288;12.068;2022-10-03T11:00:17;101286.09;;;14.75;52.27
58471;BME280;44258;51.288;12.068;2022-10-03T11:14:40;101295.56;;;14.52;52.30
58471;BME280;44258;51.288;12.068;2022-10-03T11:17:23;101300.09;;;14.36;52.47
58471;BME280;44258;51.288;12.068;2022-10-03T11:22:59;101291.78;;;14.70;51.74
58471;BME280;44258;51.288;12.068;2022-10-03T11:25:47;101305.81;;;14.93;52.30
58471;BME280;44258;51.288;12.068;2022-10-03T11:28:29;101300.56;;;15.20;51.55
58471;BME280;44258;51.288;12.068;2022-10-03T11:31:09;101289.09;;;15.31;51.43
58471;BME280;44258;51.288;12.068;2022-10-03T11:36:37;101282.19;;;15.56;50.48
58471;BME280;44258;51.288;12.068;2022-10-03T11:39:11;101278.50;;;16.00;49.49
58471;BME280;44258;51.288;12.068;2022-10-03T11:41:45;101280.66;;;15.80;49.48
58471;BME280;44258;51.288;12.068;2022-10-03T11:44:17;101278.34;;;15.60;49.31
58471;BME280;44258;51.288;12.068;2022-10-03T11:46:54;101280.66;;;15.66;49.83
58471;BME280;44258;51.288;12.068;2022-10-03T11:49:34;101276.28;;;16.06;48.17
58471;BME280;44258;51.288;12.068;2022-10-03T11:52:06;101279.88;;;15.92;47.53
58471;BME280;44258;51.288;12.068;2022-10-03T11:54:37;101271.41;;;16.40;47.85
58471;BME280;44258;51.288;12.068;2022-10-03T11:57:07;101280.00;;;16.47;47.22
58471;BME280;44258;51.288;12.068;2022-10-03T11:59:36;101268.56;;;16.56;45.90
58471;BME280;44258;51.288;12.068;2022-10-03T12:02:13;101271.31;;;16.69;46.20
58471;BME280;44258;51.288;12.068;2022-10-03T12:04:46;101264.41;;;16.78;46.68
58471;BME280;44258;51.288;12.068;2022-10-03T12:07:17;101265.81;;;16.83;47.02
58471;BME280;44258;51.288;12.068;2022-10-03T12:10:22;101260.63;;;16.93;48.22
58471;BME280;44258;51.288;12.068;2022-10-03T12:12:54;101263.22;;;16.82;49.56
58471;BME280;44258;51.288;12.068;2022-10-03T12:15:24;101266.34;;;16.76;49.97
58471;BME280;44258;51.288;12.068;2022-10-03T12:17:57;101268.66;;;16.82;50.54
58471;BME280;44258;51.288;12.068;2022-10-03T12:20:29;101258.41;;;16.72;50.48
58471;BME280;44258;51.288;12.068;2022-10-03T12:22:59;101266.81;;;16.82;50.61
58471;BME280;44258;51.288;12.068;2022-10-03T12:25:28;101266.66;;;17.11;49.85
58471;BME280;44258;51.288;12.068;2022-10-03T12:27:58;101268.81;;;17.33;49.58
58471;BME280;44258;51.288;12.068;2022-10-03T12:30:27;101263.03;;;17.25;49.36
58471;BME280;44258;51.288;12.068;2022-10-03T12:33:07;101262.59;;;16.91;48.84
58471;BME280;44258;51.288;12.068;2022-10-03T12:35:41;101263.28;;;17.07;49.00
58471;BME280;44258;51.288;12.068;2022-10-03T12:38:14;101271.00;;;17.13;49.56
58471;BME280;44258;51.288;12.068;2022-10-03T12:40:48;101260.09;;;16.88;50.61
58471;BME280;44258;51.288;12.068;2022-10-03T12:43:22;101262.50;;;17.05;50.04
58471;BME280;44258;51.288;12.068;2022-10-03T12:45:56;101255.19;;;16.93;50.63
58471;BME280;44258;51.288;12.068;2022-10-03T12:48:38;101247.84;;;17.08;50.05
58471;BME280;44258;51.288;12.068;2022-10-03T12:51:12;101255.34;;;17.04;49.83
58471;BME280;44258;51.288;12.068;2022-10-03T12:53:45;101261.53;;;16.66;50.46
58471;BME280;44258;51.288;12.068;2022-10-03T12:56:15;101257.19;;;16.64;50.38
58471;BME280;44258;51.288;12.068;2022-10-03T12:58:46;101256.03;;;16.81;50.04
58471;BME280;44258;51.288;12.068;2022-10-03T13:01:18;101252.22;;;16.83;50.41
58471;BME280;44258;51.288;12.068;2022-10-03T13:03:49;101255.66;;;17.00;50.15
58471;BME280;44258;51.288;12.068;2022-10-03T13:06:27;101251.19;;;16.86;50.05
58471;BME280;44258;51.288;12.068;2022-10-03T13:09:02;101255.53;;;16.88;49.56
58471;BME280;44258;51.288;12.068;2022-10-03T13:11:31;101249.03;;;16.64;49.76
58471;BME280;44258;51.288;12.068;2022-10-03T13:14:05;101243.69;;;16.62;49.77
58471;BME280;44258;51.288;12.068;2022-10-03T13:16:33;101248.47;;;16.59;50.07
58471;BME280;44258;51.288;12.068;2022-10-03T13:19:06;101242.69;;;16.78;49.85
58471;BME280;44258;51.288;12.068;2022-10-03T13:21:44;101251.88;;;16.75;50.36
58471;BME280;44258;51.288;12.068;2022-10-03T13:24:16;101248.22;;;16.89;49.48
58471;BME280;44258;51.288;12.068;2022-10-03T13:26:49;101245.25;;;17.06;49.01
58471;BME280;44258;51.288;12.068;2022-10-03T13:29:24;101239.91;;;16.92;49.04
58471;BME280;44258;51.288;12.068;2022-10-03T13:32:05;101243.47;;;16.92;49.49
58471;BME280;44258;51.288;12.068;2022-10-03T13:34:44;101239.41;;;16.85;49.18
58471;BME280;44258;51.288;12.068;2022-10-03T13:37:13;101233.09;;;16.45;50.08
58471;BME280;44258;51.288;12.068;2022-10-03T13:39:44;101235.13;;;16.68;49.30
58471;BME280;44258;51.288;12.068;2022-10-03T13:42:12;101239.34;;;16.60;49.34
58471;BME280;44258;51.288;12.068;2022-10-03T13:44:44;101241.03;;;16.48;49.45
58471;BME280;44258;51.288;12.068;2022-10-03T13:47:28;101249.19;;;16.48;49.88
58471;BME280;44258;51.288;12.068;2022-10-03T13:49:58;101247.00;;;16.11;50.89
58471;BME280;44258;51.288;12.068;2022-10-03T13:52:31;101234.72;;;15.91;51.22
58471;BME280;44258;51.288;12.068;2022-10-03T13:55:08;101273.59;;;15.92;52.48
58471;BME280;44258;51.288;12.068;2022-10-03T13:57:37;101264.00;;;15.58;53.72
58471;BME280;44258;51.288;12.068;2022-10-03T14:00:07;101265.94;;;15.56;54.89
58471;BME280;44258;51.288;12.068;2022-10-03T14:05:37;101259.06;;;15.79;54.14
58471;BME280;44258;51.288;12.068;2022-10-03T14:08:11;101246.97;;;15.84;53.19
58471;BME280;44258;51.288;12.068;2022-10-03T14:10:54;101248.97;;;15.81;54.12
58471;BME280;44258;51.288;12.068;2022-10-03T14:13:27;101253.22;;;15.99;53.62
58471;BME280;44258;51.288;12.068;2022-10-03T14:15:57;101258.25;;;16.05;53.47
58471;BME280;44258;51.288;12.068;2022-10-03T14:18:32;101258.63;;;16.13;52.99
58471;BME280;44258;51.288;12.068;2022-10-03T14:23:49;101255.28;;;15.52;53.27
58471;BME280;44258;51.288;12.068;2022-10-03T14:26:19;101250.44;;;15.72;53.12
58471;BME280;44258;51.288;12.068;2022-10-03T14:28:50;101241.91;;;15.92;52.41
58471;BME280;44258;51.288;12.068;2022-10-03T14:31:23;101235.41;;;15.81;52.33
58471;BME280;44258;51.288;12.068;2022-10-03T14:33:57;101235.50;;;15.93;52.25
58471;BME280;44258;51.288;12.068;2022-10-03T14:36:28;101243.25;;;15.85;52.99
58471;BME280;44258;51.288;12.068;2022-10-03T14:39:07;101242.31;;;15.43;54.18
58471;BME280;44258;51.288;12.068;2022-10-03T14:41:46;101239.09;;;15.51;54.36
58471;BME280;44258;51.288;12.068;2022-10-03T14:44:17;101237.28;;;15.66;53.69
58471;BME280;44258;51.288;12.068;2022-10-03T14:46:49;101224.66;;;15.79;53.31
58471;BME280;44258;51.288;12.068;2022-10-03T14:49:17;101225.06;;;15.73;53.67
58471;BME280;44258;51.288;12.068;2022-10-03T14:51:46;101237.94;;;15.55;53.76
58471;BME280;44258;51.288;12.068;2022-10-03T14:54:18;101243.94;;;15.74;53.41
58471;BME280;44258;51.288;12.068;2022-10-03T14:56:46;101235.22;;;15.98;53.00
58471;BME280;44258;51.288;12.068;2022-10-03T14:59:16;101233.88;;;15.77;52.80
58471;BME280;44258;51.288;12.068;2022-10-03T15:01:47;101235.81;;;15.89;52.63
58471;BME280;44258;51.288;12.068;2022-10-03T15:04:16;101239.28;;;15.91;52.33
58471;BME280;44258;51.288;12.068;2022-10-03T15:06:50;101248.56;;;16.01;52.25
58471;BME280;44258;51.288;12.068;2022-10-03T15:09:22;101237.28;;;15.66;52.79
58471;BME280;44258;51.288;12.068;2022-10-03T15:11:51;101239.59;;;15.72;52.94
58471;BME280;44258;51.288;12.068;2022-10-03T15:14:18;101239.88;;;15.67;53.23
58471;BME280;44258;51.288;12.068;2022-10-03T15:16:48;101233.03;;;15.62;52.82
58471;BME280;44258;51.288;12.068;2022-10-03T15:19:17;101240.53;;;15.42;53.17
58471;BME280;44258;51.288;12.068;2022-10-03T15:21:45;101236.28;;;15.38;53.23
58471;BME280;44258;51.288;12.068;2022-10-03T15:24:16;101230.00;;;15.07;54.20
58471;BME280;44258;51.288;12.068;2022-10-03T15:26:46;101229.03;;;15.08;54.38
58471;BME280;44258;51.288;12.068;2022-10-03T15:29:17;101226.94;;;15.28;53.57
58471;BME280;44258;51.288;12.068;2022-10-03T15:31:45;101231.84;;;15.37;53.10
58471;BME280;44258;51.288;12.068;2022-10-03T15:34:15;101224.53;;;15.23;53.36
58471;BME280;44258;51.288;12.068;2022-10-03T15:36:45;101213.94;;;15.19;53.25
58471;BME280;44258;51.288;12.068;2022-10-03T15:39:15;101216.75;;;15.33;53.01
58471;BME280;44258;51.288;12.068;2022-10-03T15:41:49;101210.56;;;15.45;52.90
58471;BME280;44258;51.288;12.068;2022-10-03T15:44:17;101218.88;;;15.57;52.84
58471;BME280;44258;51.288;12.068;2022-10-03T15:46:47;101215.84;;;15.61;52.86
58471;BME280;44258;51.288;12.068;2022-10-03T15:49:18;101222.16;;;15.76;52.63
58471;BME280;44258;51.288;12.068;2022-10-03T15:51:47;101211.03;;;15.66;52.88
58471;BME280;44258;51.288;12.068;2022-10-03T15:54:14;101216.84;;;15.60;52.99
58471;BME280;44258;51.288;12.068;2022-10-03T15:56:43;101214.03;;;15.76;52.60
58471;BME280;44258;51.288;12.068;2022-10-03T15:59:16;101211.09;;;15.79;52.66
58471;BME280;44258;51.288;12.068;2022-10-03T16:01:45;101213.13;;;15.75;52.92
58471;BME280;44258;51.288;12.068;2022-10-03T16:04:16;101223.97;;;15.75;52.73